sensor_id;sensor_type;location;lat;lon;timestamp;P1;durP1;ratioP1;P2;durP2;ratioP2
39196;SDS011;42889;51.112;13.772;2022-07-01T00:01:49;17.85;;;13.38;;
39196;SDS011;42889;51.112;13.772;2022-07-01T00:04:16;17.25;;;12.82;;
39196;SDS011;42889;51.112;13.772;2022-07-01T00:06:42;15.88;;;12.20;;
39196;SDS011;42889;51.112;13.772;2022-07-01T00:09:09;16.27;;;12.45;;
39196;SDS011;42889;51.112;13.772;2022-07-01T00:11:35;18.80;;;12.55;;
39196;SDS011;42889;51.112;13.772;2022-07-01T00:14:02;17.20;;;13.07;;
39196;SDS011;42889;51.112;13.772;2022-07-01T00:16:29;15.60;;;12.50;;
39196;SDS011;42889;51.112;13.772;2022-07-01T00:18:56;18.23;;;12.63;;
39196;SDS011;42889;51.112;13.772;2022-07-01T00:21:22;15.50;;;12.32;;
39196;SDS011;42889;51.112;13.772;2022-07-01T00:23:49;17.45;;;12.52;;
39196;SDS011;42889;51.112;13.772;2022-07-01T00:26:15;15.43;;;12.07;;
39196;SDS011;42889;51.112;13.772;2022-07-01T00:28:42;16.73;;;12.07;;
39196;SDS011;42889;51.112;13.772;2022-07-01T00:31:09;15.77;;;11.40;;
39196;SDS011;42889;51.112;13.772;2022-07-01T00:33:35;16.92;;;11.25;;
39196;SDS011;42889;51.112;13.772;2022-07-01T00:36:02;13.07;;;10.32;;
39196;SDS011;42889;51.112;13.772;2022-07-01T00:38:29;13.25;;;10.25;;
39196;SDS011;42889;51.112;13.772;2022-07-01T00:40:55;14.27;;;11.02;;
39196;SDS011;42889;51.112;13.772;2022-07-01T00:43:22;15.52;;;12.07;;
39196;SDS011;42889;51.112;13.772;2022-07-01T00:46:10;17.10;;;11.68;;
39196;SDS011;42889;51.112;13.772;2022-07-01T00:48:37;15.13;;;11.95;;
39196;SDS011;42889;51.112;13.772;2022-07-01T00:51:05;17.48;;;11.93;;
39196;SDS011;42889;51.112;13.772;2022-07-01T00:53:32;17.38;;;12.35;;
39196;SDS011;42889;51.112;13.772;2022-07-01T00:55:59;18.45;;;12.68;;
39196;SDS011;42889;51.112;13.772;2022-07-01T00:58:27;15.40;;;12.88;;
39196;SDS011;42889;51.112;13.772;2022-07-01T01:00:55;16.83;;;12.60;;
39196;SDS011;42889;51.112;13.772;2022-07-01T01:03:22;15.13;;;12.45;;
39196;SDS011;42889;51.112;13.772;2022-07-01T01:05:49;14.73;;;12.50;;
39196;SDS011;42889;51.112;13.772;2022-07-01T01:08:16;15.32;;;12.45;;
39196;SDS011;42889;51.112;13.772;2022-07-01T01:10:43;17.25;;;13.00;;
39196;SDS011;42889;51.112;13.772;2022-07-01T01:13:10;16.88;;;13.23;;
39196;SDS011;42889;51.112;13.772;2022-07-01T01:15:38;17.58;;;13.05;;
39196;SDS011;42889;51.112;13.772;2022-07-01T01:18:05;18.35;;;12.93;;
39196;SDS011;42889;51.112;13.772;2022-07-01T01:20:34;20.15;;;14.45;;
39196;SDS011;42889;51.112;13.772;2022-07-01T01:23:03;17.70;;;13.55;;
39196;SDS011;42889;51.112;13.772;2022-07-01T01:25:33;19.15;;;14.02;;
39196;SDS011;42889;51.112;13.772;2022-07-01T01:28:00;17.08;;;13.73;;
39196;SDS011;42889;51.112;13.772;2022-07-01T01:30:28;18.50;;;13.68;;
39196;SDS011;42889;51.112;13.772;2022-07-01T01:32:54;20.80;;;14.30;;
39196;SDS011;42889;51.112;13.772;2022-07-01T01:35:21;16.20;;;13.30;;
39196;SDS011;42889;51.112;13.772;2022-07-01T01:37:48;19.40;;;14.25;;
39196;SDS011;42889;51.112;13.772;2022-07-01T01:40:15;18.55;;;14.10;;
39196;SDS011;42889;51.112;13.772;2022-07-01T01:42:42;21.42;;;14.02;;
39196;SDS011;42889;51.112;13.772;2022-07-01T01:45:10;16.92;;;13.45;;
39196;SDS011;42889;51.112;13.772;2022-07-01T01:47:37;16.80;;;13.13;;
39196;SDS011;42889;51.112;13.772;2022-07-01T01:50:05;20.73;;;12.80;;
39196;SDS011;42889;51.112;13.772;2022-07-01T01:52:32;16.65;;;13.32;;
39196;SDS011;42889;51.112;13.772;2022-07-01T01:54:59;16.98;;;13.00;;
39196;SDS011;42889;51.112;13.772;2022-07-01T01:57:26;19.13;;;14.38;;
39196;SDS011;42889;51.112;13.772;2022-07-01T01:59:54;20.17;;;14.82;;
39196;SDS011;42889;51.112;13.772;2022-07-01T02:02:20;19.77;;;14.30;;
39196;SDS011;42889;51.112;13.772;2022-07-01T02:04:47;17.75;;;13.68;;
39196;SDS011;42889;51.112;13.772;2022-07-01T02:07:14;18.55;;;13.60;;
39196;SDS011;42889;51.112;13.772;2022-07-01T02:09:40;17.50;;;13.52;;
39196;SDS011;42889;51.112;13.772;2022-07-01T02:12:07;18.00;;;13.55;;
39196;SDS011;42889;51.112;13.772;2022-07-01T02:14:34;16.98;;;12.70;;
39196;SDS011;42889;51.112;13.772;2022-07-01T02:17:01;19.85;;;13.65;;
39196;SDS011;42889;51.112;13.772;2022-07-01T02:19:27;17.05;;;13.18;;
39196;SDS011;42889;51.112;13.772;2022-07-01T02:21:54;17.27;;;13.40;;
39196;SDS011;42889;51.112;13.772;2022-07-01T02:24:20;17.25;;;12.57;;
39196;SDS011;42889;51.112;13.772;2022-07-01T02:26:47;15.82;;;12.02;;
39196;SDS011;42889;51.112;13.772;2022-07-01T02:29:14;17.17;;;12.50;;
39196;SDS011;42889;51.112;13.772;2022-07-01T02:31:40;18.02;;;12.98;;
39196;SDS011;42889;51.112;13.772;2022-07-01T02:34:07;15.30;;;11.68;;
39196;SDS011;42889;51.112;13.772;2022-07-01T02:36:33;15.55;;;12.68;;
39196;SDS011;42889;51.112;13.772;2022-07-01T02:39:00;14.63;;;11.38;;
39196;SDS011;42889;51.112;13.772;2022-07-01T02:41:27;16.52;;;12.02;;
39196;SDS011;42889;51.112;13.772;2022-07-01T02:43:53;15.90;;;12.77;;
39196;SDS011;42889;51.112;13.772;2022-07-01T02:46:20;24.80;;;16.30;;
39196;SDS011;42889;51.112;13.772;2022-07-01T02:48:47;18.23;;;13.40;;
39196;SDS011;42889;51.112;13.772;2022-07-01T02:51:13;19.77;;;13.13;;
39196;SDS011;42889;51.112;13.772;2022-07-01T02:53:40;17.70;;;13.55;;
39196;SDS011;42889;51.112;13.772;2022-07-01T02:56:07;18.80;;;13.68;;
39196;SDS011;42889;51.112;13.772;2022-07-01T02:58:33;16.88;;;13.07;;
39196;SDS011;42889;51.112;13.772;2022-07-01T03:01:00;18.38;;;13.52;;
39196;SDS011;42889;51.112;13.772;2022-07-01T03:03:26;16.05;;;13.23;;
39196;SDS011;42889;51.112;13.772;2022-07-01T03:05:53;18.65;;;13.88;;
39196;SDS011;42889;51.112;13.772;2022-07-01T03:08:19;18.77;;;14.15;;
39196;SDS011;42889;51.112;13.772;2022-07-01T03:10:46;19.17;;;14.05;;
39196;SDS011;42889;51.112;13.772;2022-07-01T03:13:12;21.85;;;15.52;;
39196;SDS011;42889;51.112;13.772;2022-07-01T03:15:39;22.25;;;15.88;;
39196;SDS011;42889;51.112;13.772;2022-07-01T03:18:05;23.33;;;15.15;;
39196;SDS011;42889;51.112;13.772;2022-07-01T03:20:32;21.10;;;16.02;;
39196;SDS011;42889;51.112;13.772;2022-07-01T03:23:14;21.38;;;15.40;;
39196;SDS011;42889;51.112;13.772;2022-07-01T03:25:49;18.73;;;14.88;;
39196;SDS011;42889;51.112;13.772;2022-07-01T03:28:24;23.23;;;16.73;;
39196;SDS011;42889;51.112;13.772;2022-07-01T03:30:54;19.33;;;14.52;;
39196;SDS011;42889;51.112;13.772;2022-07-01T03:33:21;21.23;;;15.23;;
39196;SDS011;42889;51.112;13.772;2022-07-01T03:35:48;21.30;;;15.43;;
39196;SDS011;42889;51.112;13.772;2022-07-01T03:38:14;24.88;;;15.95;;
39196;SDS011;42889;51.112;13.772;2022-07-01T03:40:41;20.98;;;15.82;;
39196;SDS011;42889;51.112;13.772;2022-07-01T03:43:07;21.75;;;15.45;;
39196;SDS011;42889;51.112;13.772;2022-07-01T03:45:34;21.55;;;16.40;;
39196;SDS011;42889;51.112;13.772;2022-07-01T03:48:01;21.25;;;16.15;;
39196;SDS011;42889;51.112;13.772;2022-07-01T03:50:31;21.65;;;15.88;;
39196;SDS011;42889;51.112;13.772;2022-07-01T03:52:57;21.13;;;15.93;;
39196;SDS011;42889;51.112;13.772;2022-07-01T03:55:42;22.23;;;16.13;;
39196;SDS011;42889;51.112;13.772;2022-07-01T03:58:09;21.00;;;15.70;;
39196;SDS011;42889;51.112;13.772;2022-07-01T04:00:36;20.70;;;15.32;;
39196;SDS011;42889;51.112;13.772;2022-07-01T04:03:04;21.30;;;14.85;;
39196;SDS011;42889;51.112;13.772;2022-07-01T04:05:35;19.98;;;14.70;;
39196;SDS011;42889;51.112;13.772;2022-07-01T04:08:06;20.58;;;14.40;;
39196;SDS011;42889;51.112;13.772;2022-07-01T04:10:34;20.95;;;15.27;;
39196;SDS011;42889;51.112;13.772;2022-07-01T04:13:01;17.70;;;13.60;;
39196;SDS011;42889;51.112;13.772;2022-07-01T04:15:48;20.65;;;14.20;;
39196;SDS011;42889;51.112;13.772;2022-07-01T04:18:15;16.60;;;13.55;;
39196;SDS011;42889;51.112;13.772;2022-07-01T04:20:42;17.27;;;13.27;;
39196;SDS011;42889;51.112;13.772;2022-07-01T04:23:08;17.27;;;12.90;;
39196;SDS011;42889;51.112;13.772;2022-07-01T04:25:35;15.52;;;12.85;;
39196;SDS011;42889;51.112;13.772;2022-07-01T04:28:01;19.42;;;12.63;;
39196;SDS011;42889;51.112;13.772;2022-07-01T04:30:29;17.00;;;12.95;;
39196;SDS011;42889;51.112;13.772;2022-07-01T04:32:56;16.13;;;12.57;;
39196;SDS011;42889;51.112;13.772;2022-07-01T04:35:23;19.73;;;12.43;;
39196;SDS011;42889;51.112;13.772;2022-07-01T04:37:50;18.23;;;12.32;;
39196;SDS011;42889;51.112;13.772;2022-07-01T04:40:16;20.67;;;12.35;;
39196;SDS011;42889;51.112;13.772;2022-07-01T04:42:43;18.67;;;12.30;;
39196;SDS011;42889;51.112;13.772;2022-07-01T04:45:09;17.60;;;12.43;;
39196;SDS011;42889;51.112;13.772;2022-07-01T04:47:36;19.52;;;12.65;;
39196;SDS011;42889;51.112;13.772;2022-07-01T04:50:03;17.20;;;11.27;;
39196;SDS011;42889;51.112;13.772;2022-07-01T04:52:30;14.00;;;10.48;;
39196;SDS011;42889;51.112;13.772;2022-07-01T04:54:56;18.90;;;10.77;;
39196;SDS011;42889;51.112;13.772;2022-07-01T04:57:23;14.40;;;10.95;;
39196;SDS011;42889;51.112;13.772;2022-07-01T04:59:49;12.90;;;10.15;;
39196;SDS011;42889;51.112;13.772;2022-07-01T05:02:16;14.52;;;10.02;;
39196;SDS011;42889;51.112;13.772;2022-07-01T05:04:43;12.88;;;10.20;;
39196;SDS011;42889;51.112;13.772;2022-07-01T05:07:09;17.13;;;10.35;;
39196;SDS011;42889;51.112;13.772;2022-07-01T05:09:55;13.88;;;10.02;;
39196;SDS011;42889;51.112;13.772;2022-07-01T05:12:22;12.73;;;9.63;;
39196;SDS011;42889;51.112;13.772;2022-07-01T05:14:49;15.75;;;9.80;;
39196;SDS011;42889;51.112;13.772;2022-07-01T05:17:16;15.00;;;9.70;;
39196;SDS011;42889;51.112;13.772;2022-07-01T05:19:42;14.55;;;9.90;;
39196;SDS011;42889;51.112;13.772;2022-07-01T05:22:28;17.25;;;10.05;;
39196;SDS011;42889;51.112;13.772;2022-07-01T05:24:54;13.80;;;8.70;;
39196;SDS011;42889;51.112;13.772;2022-07-01T05:27:21;12.88;;;8.65;;
39196;SDS011;42889;51.112;13.772;2022-07-01T05:29:48;12.07;;;8.57;;
39196;SDS011;42889;51.112;13.772;2022-07-01T05:32:15;11.65;;;8.48;;
39196;SDS011;42889;51.112;13.772;2022-07-01T05:34:41;12.70;;;8.23;;
39196;SDS011;42889;51.112;13.772;2022-07-01T05:37:08;13.32;;;7.97;;
39196;SDS011;42889;51.112;13.772;2022-07-01T05:39:35;11.23;;;7.65;;
39196;SDS011;42889;51.112;13.772;2022-07-01T05:42:09;11.50;;;7.57;;
39196;SDS011;42889;51.112;13.772;2022-07-01T05:44:36;11.10;;;7.38;;
39196;SDS011;42889;51.112;13.772;2022-07-01T05:47:03;13.00;;;8.13;;
39196;SDS011;42889;51.112;13.772;2022-07-01T05:49:29;14.60;;;7.70;;
39196;SDS011;42889;51.112;13.772;2022-07-01T05:51:56;10.63;;;7.00;;
39196;SDS011;42889;51.112;13.772;2022-07-01T05:54:22;12.48;;;7.05;;
39196;SDS011;42889;51.112;13.772;2022-07-01T05:56:49;12.60;;;7.68;;
39196;SDS011;42889;51.112;13.772;2022-07-01T05:59:15;13.88;;;8.05;;
39196;SDS011;42889;51.112;13.772;2022-07-01T06:01:42;11.43;;;6.85;;
39196;SDS011;42889;51.112;13.772;2022-07-01T06:04:10;13.63;;;7.68;;
39196;SDS011;42889;51.112;13.772;2022-07-01T06:06:37;16.67;;;7.72;;
39196;SDS011;42889;51.112;13.772;2022-07-01T06:09:03;12.13;;;8.02;;
39196;SDS011;42889;51.112;13.772;2022-07-01T06:11:30;10.88;;;7.25;;
39196;SDS011;42889;51.112;13.772;2022-07-01T06:13:57;10.00;;;7.00;;
39196;SDS011;42889;51.112;13.772;2022-07-01T06:16:24;12.25;;;7.60;;
39196;SDS011;42889;51.112;13.772;2022-07-01T06:18:56;14.85;;;9.45;;
39196;SDS011;42889;51.112;13.772;2022-07-01T06:21:23;13.32;;;9.35;;
39196;SDS011;42889;51.112;13.772;2022-07-01T06:23:49;11.95;;;9.38;;
39196;SDS011;42889;51.112;13.772;2022-07-01T06:26:16;15.88;;;10.18;;
39196;SDS011;42889;51.112;13.772;2022-07-01T06:28:42;13.85;;;10.18;;
39196;SDS011;42889;51.112;13.772;2022-07-01T06:31:09;12.75;;;8.68;;
39196;SDS011;42889;51.112;13.772;2022-07-01T06:33:35;14.52;;;9.30;;
39196;SDS011;42889;51.112;13.772;2022-07-01T06:36:02;18.08;;;9.70;;
39196;SDS011;42889;51.112;13.772;2022-07-01T06:38:29;16.67;;;9.05;;
39196;SDS011;42889;51.112;13.772;2022-07-01T06:40:56;14.05;;;9.07;;
39196;SDS011;42889;51.112;13.772;2022-07-01T06:43:41;15.52;;;9.13;;
39196;SDS011;42889;51.112;13.772;2022-07-01T06:46:09;13.40;;;8.73;;
39196;SDS011;42889;51.112;13.772;2022-07-01T06:48:36;12.32;;;8.98;;
39196;SDS011;42889;51.112;13.772;2022-07-01T06:51:03;15.20;;;9.13;;
39196;SDS011;42889;51.112;13.772;2022-07-01T06:53:29;16.17;;;10.65;;
39196;SDS011;42889;51.112;13.772;2022-07-01T06:55:56;13.38;;;9.57;;
39196;SDS011;42889;51.112;13.772;2022-07-01T06:58:23;19.10;;;11.63;;
39196;SDS011;42889;51.112;13.772;2022-07-01T07:00:50;15.25;;;11.93;;
39196;SDS011;42889;51.112;13.772;2022-07-01T07:03:16;16.63;;;10.93;;
39196;SDS011;42889;51.112;13.772;2022-07-01T07:05:43;16.60;;;11.13;;
39196;SDS011;42889;51.112;13.772;2022-07-01T07:08:10;15.55;;;10.85;;
39196;SDS011;42889;51.112;13.772;2022-07-01T07:10:36;14.35;;;9.70;;
39196;SDS011;42889;51.112;13.772;2022-07-01T07:13:03;10.88;;;8.52;;
39196;SDS011;42889;51.112;13.772;2022-07-01T07:15:30;12.18;;;9.32;;
39196;SDS011;42889;51.112;13.772;2022-07-01T07:17:56;14.43;;;9.30;;
39196;SDS011;42889;51.112;13.772;2022-07-01T07:20:24;12.50;;;8.68;;
39196;SDS011;42889;51.112;13.772;2022-07-01T07:22:51;14.95;;;9.48;;
39196;SDS011;42889;51.112;13.772;2022-07-01T07:25:18;17.25;;;9.00;;
39196;SDS011;42889;51.112;13.772;2022-07-01T07:27:45;11.90;;;8.63;;
39196;SDS011;42889;51.112;13.772;2022-07-01T07:30:13;14.18;;;9.10;;
39196;SDS011;42889;51.112;13.772;2022-07-01T07:32:39;13.32;;;7.97;;
39196;SDS011;42889;51.112;13.772;2022-07-01T07:35:06;9.35;;;7.40;;
39196;SDS011;42889;51.112;13.772;2022-07-01T07:37:33;11.10;;;7.88;;
39196;SDS011;42889;51.112;13.772;2022-07-01T07:40:00;12.45;;;7.70;;
39196;SDS011;42889;51.112;13.772;2022-07-01T07:42:29;10.77;;;7.63;;
39196;SDS011;42889;51.112;13.772;2022-07-01T07:44:56;11.85;;;7.47;;
39196;SDS011;42889;51.112;13.772;2022-07-01T07:47:23;16.25;;;8.93;;
39196;SDS011;42889;51.112;13.772;2022-07-01T07:49:49;11.70;;;8.32;;
39196;SDS011;42889;51.112;13.772;2022-07-01T07:52:16;12.18;;;8.43;;
39196;SDS011;42889;51.112;13.772;2022-07-01T07:54:42;10.95;;;7.85;;
39196;SDS011;42889;51.112;13.772;2022-07-01T07:57:09;15.95;;;9.07;;
39196;SDS011;42889;51.112;13.772;2022-07-01T07:59:35;14.27;;;10.25;;
39196;SDS011;42889;51.112;13.772;2022-07-01T08:02:02;15.20;;;10.48;;
39196;SDS011;42889;51.112;13.772;2022-07-01T08:04:29;15.23;;;11.25;;
39196;SDS011;42889;51.112;13.772;2022-07-01T08:06:56;18.48;;;13.38;;
39196;SDS011;42889;51.112;13.772;2022-07-01T08:09:22;17.92;;;12.75;;
39196;SDS011;42889;51.112;13.772;2022-07-01T08:11:49;15.23;;;11.95;;
39196;SDS011;42889;51.112;13.772;2022-07-01T08:14:15;17.35;;;12.15;;
39196;SDS011;42889;51.112;13.772;2022-07-01T08:16:48;16.50;;;12.15;;
39196;SDS011;42889;51.112;13.772;2022-07-01T08:19:15;17.88;;;12.77;;
39196;SDS011;42889;51.112;13.772;2022-07-01T08:21:41;14.27;;;11.10;;
39196;SDS011;42889;51.112;13.772;2022-07-01T08:24:08;15.93;;;10.93;;
39196;SDS011;42889;51.112;13.772;2022-07-01T08:26:34;16.23;;;11.75;;
39196;SDS011;42889;51.112;13.772;2022-07-01T08:29:01;17.45;;;11.95;;
39196;SDS011;42889;51.112;13.772;2022-07-01T08:31:27;16.50;;;11.95;;
39196;SDS011;42889;51.112;13.772;2022-07-01T08:33:54;16.40;;;10.98;;
39196;SDS011;42889;51.112;13.772;2022-07-01T08:36:21;16.98;;;12.40;;
39196;SDS011;42889;51.112;13.772;2022-07-01T08:38:47;19.90;;;13.25;;
39196;SDS011;42889;51.112;13.772;2022-07-01T08:41:15;17.55;;;13.13;;
39196;SDS011;42889;51.112;13.772;2022-07-01T08:43:45;17.23;;;13.40;;
39196;SDS011;42889;51.112;13.772;2022-07-01T08:46:12;18.38;;;13.38;;
39196;SDS011;42889;51.112;13.772;2022-07-01T08:48:42;21.15;;;13.35;;
39196;SDS011;42889;51.112;13.772;2022-07-01T08:51:10;17.75;;;13.90;;
39196;SDS011;42889;51.112;13.772;2022-07-01T08:53:37;19.05;;;12.77;;
39196;SDS011;42889;51.112;13.772;2022-07-01T08:56:04;15.80;;;11.57;;
39196;SDS011;42889;51.112;13.772;2022-07-01T08:58:49;16.50;;;11.93;;
39196;SDS011;42889;51.112;13.772;2022-07-01T09:01:21;19.15;;;12.20;;
39196;SDS011;42889;51.112;13.772;2022-07-01T09:03:50;22.83;;;12.95;;
39196;SDS011;42889;51.112;13.772;2022-07-01T09:06:19;17.60;;;11.90;;
39196;SDS011;42889;51.112;13.772;2022-07-01T09:08:47;18.27;;;12.02;;
39196;SDS011;42889;51.112;13.772;2022-07-01T09:11:15;16.75;;;12.00;;
39196;SDS011;42889;51.112;13.772;2022-07-01T09:14:05;20.33;;;13.85;;
39196;SDS011;42889;51.112;13.772;2022-07-01T09:19:11;23.23;;;15.05;;
39196;SDS011;42889;51.112;13.772;2022-07-01T09:21:39;23.75;;;15.25;;
39196;SDS011;42889;51.112;13.772;2022-07-01T09:24:28;23.65;;;14.63;;
39196;SDS011;42889;51.112;13.772;2022-07-01T09:27:02;22.15;;;14.07;;
39196;SDS011;42889;51.112;13.772;2022-07-01T09:29:50;22.77;;;13.40;;
39196;SDS011;42889;51.112;13.772;2022-07-01T09:32:17;25.70;;;15.52;;
39196;SDS011;42889;51.112;13.772;2022-07-01T09:34:50;22.05;;;14.77;;
39196;SDS011;42889;51.112;13.772;2022-07-01T09:37:23;23.77;;;15.00;;
39196;SDS011;42889;51.112;13.772;2022-07-01T09:39:54;26.38;;;16.40;;
39196;SDS011;42889;51.112;13.772;2022-07-01T09:42:23;22.13;;;16.08;;
39196;SDS011;42889;51.112;13.772;2022-07-01T09:47:28;24.95;;;16.27;;
39196;SDS011;42889;51.112;13.772;2022-07-01T09:49:56;20.20;;;15.32;;
39196;SDS011;42889;51.112;13.772;2022-07-01T09:52:23;22.27;;;14.77;;
39196;SDS011;42889;51.112;13.772;2022-07-01T09:54:51;21.80;;;14.55;;
39196;SDS011;42889;51.112;13.772;2022-07-01T09:57:18;22.17;;;14.90;;
39196;SDS011;42889;51.112;13.772;2022-07-01T09:59:47;20.02;;;14.50;;
39196;SDS011;42889;51.112;13.772;2022-07-01T10:02:14;18.58;;;13.20;;
39196;SDS011;42889;51.112;13.772;2022-07-01T10:04:58;19.73;;;13.35;;
39196;SDS011;42889;51.112;13.772;2022-07-01T10:13:12;18.70;;;12.35;;
39196;SDS011;42889;51.112;13.772;2022-07-01T10:15:42;17.88;;;12.65;;
39196;SDS011;42889;51.112;13.772;2022-07-01T10:18:21;18.77;;;11.25;;
39196;SDS011;42889;51.112;13.772;2022-07-01T10:20:49;14.52;;;10.60;;
39196;SDS011;42889;51.112;13.772;2022-07-01T10:23:21;13.98;;;9.82;;
39196;SDS011;42889;51.112;13.772;2022-07-01T10:25:53;14.90;;;9.85;;
39196;SDS011;42889;51.112;13.772;2022-07-01T10:28:29;15.57;;;10.38;;
39196;SDS011;42889;51.112;13.772;2022-07-01T10:31:08;12.93;;;9.48;;
39196;SDS011;42889;51.112;13.772;2022-07-01T10:33:50;11.40;;;9.07;;
39196;SDS011;42889;51.112;13.772;2022-07-01T10:36:30;10.73;;;8.93;;
39196;SDS011;42889;51.112;13.772;2022-07-01T10:41:37;10.73;;;7.68;;
39196;SDS011;42889;51.112;13.772;2022-07-01T10:44:12;10.57;;;8.02;;
39196;SDS011;42889;51.112;13.772;2022-07-01T10:49:18;10.48;;;7.45;;
39196;SDS011;42889;51.112;13.772;2022-07-01T10:51:54;11.48;;;7.20;;
39196;SDS011;42889;51.112;13.772;2022-07-01T10:59:45;11.07;;;7.68;;
39196;SDS011;42889;51.112;13.772;2022-07-01T11:02:17;12.50;;;7.65;;
39196;SDS011;42889;51.112;13.772;2022-07-01T11:04:49;11.20;;;8.38;;
39196;SDS011;42889;51.112;13.772;2022-07-01T11:07:18;10.82;;;8.15;;
39196;SDS011;42889;51.112;13.772;2022-07-01T11:09:45;11.93;;;8.13;;
39196;SDS011;42889;51.112;13.772;2022-07-01T11:12:14;10.25;;;7.70;;
39196;SDS011;42889;51.112;13.772;2022-07-01T11:14:41;12.43;;;7.18;;
39196;SDS011;42889;51.112;13.772;2022-07-01T11:17:09;8.52;;;6.88;;
39196;SDS011;42889;51.112;13.772;2022-07-01T11:19:36;8.55;;;6.68;;
39196;SDS011;42889;51.112;13.772;2022-07-01T11:22:03;9.50;;;6.50;;
39196;SDS011;42889;51.112;13.772;2022-07-01T11:24:32;7.30;;;5.63;;
39196;SDS011;42889;51.112;13.772;2022-07-01T11:27:07;8.88;;;5.32;;
39196;SDS011;42889;51.112;13.772;2022-07-01T11:29:35;7.53;;;5.35;;
39196;SDS011;42889;51.112;13.772;2022-07-01T11:32:07;7.65;;;4.00;;
39196;SDS011;42889;51.112;13.772;2022-07-01T11:34:35;5.10;;;3.95;;
39196;SDS011;42889;51.112;13.772;2022-07-01T11:37:10;5.32;;;3.42;;
39196;SDS011;42889;51.112;13.772;2022-07-01T11:40:09;4.75;;;3.20;;
39196;SDS011;42889;51.112;13.772;2022-07-01T11:42:40;4.00;;;2.92;;
39196;SDS011;42889;51.112;13.772;2022-07-01T11:45:24;4.70;;;3.92;;
39196;SDS011;42889;51.112;13.772;2022-07-01T11:47:52;5.55;;;4.50;;
39196;SDS011;42889;51.112;13.772;2022-07-01T11:50:20;7.78;;;5.15;;
39196;SDS011;42889;51.112;13.772;2022-07-01T11:52:52;6.88;;;5.22;;
39196;SDS011;42889;51.112;13.772;2022-07-01T11:55:21;6.13;;;5.40;;
39196;SDS011;42889;51.112;13.772;2022-07-01T11:58:04;5.57;;;4.95;;
39196;SDS011;42889;51.112;13.772;2022-07-01T12:00:33;5.13;;;4.63;;
39196;SDS011;42889;51.112;13.772;2022-07-01T12:03:01;5.88;;;5.20;;
39196;SDS011;42889;51.112;13.772;2022-07-01T12:05:28;5.85;;;4.68;;
39196;SDS011;42889;51.112;13.772;2022-07-01T12:08:00;5.40;;;4.70;;
39196;SDS011;42889;51.112;13.772;2022-07-01T12:10:27;6.45;;;3.50;;
39196;SDS011;42889;51.112;13.772;2022-07-01T12:12:54;4.38;;;3.50;;
39196;SDS011;42889;51.112;13.772;2022-07-01T12:15:21;7.22;;;4.10;;
39196;SDS011;42889;51.112;13.772;2022-07-01T12:17:49;5.63;;;3.97;;
39196;SDS011;42889;51.112;13.772;2022-07-01T12:20:15;7.20;;;4.18;;
39196;SDS011;42889;51.112;13.772;2022-07-01T12:23:14;4.93;;;3.95;;
39196;SDS011;42889;51.112;13.772;2022-07-01T12:25:51;7.20;;;5.32;;
39196;SDS011;42889;51.112;13.772;2022-07-01T12:28:28;6.25;;;4.93;;
39196;SDS011;42889;51.112;13.772;2022-07-01T12:30:59;7.75;;;5.28;;
39196;SDS011;42889;51.112;13.772;2022-07-01T12:33:26;11.93;;;5.90;;
39196;SDS011;42889;51.112;13.772;2022-07-01T12:35:54;8.27;;;6.15;;
39196;SDS011;42889;51.112;13.772;2022-07-01T12:38:21;6.70;;;5.55;;
39196;SDS011;42889;51.112;13.772;2022-07-01T12:40:47;6.65;;;5.22;;
39196;SDS011;42889;51.112;13.772;2022-07-01T12:46:10;7.18;;;5.22;;
39196;SDS011;42889;51.112;13.772;2022-07-01T12:48:53;10.13;;;5.43;;
39196;SDS011;42889;51.112;13.772;2022-07-01T12:51:20;6.10;;;5.00;;
39196;SDS011;42889;51.112;13.772;2022-07-01T12:53:47;5.90;;;4.78;;
39196;SDS011;42889;51.112;13.772;2022-07-01T12:56:23;8.15;;;5.30;;
39196;SDS011;42889;51.112;13.772;2022-07-01T12:58:53;7.70;;;4.95;;
39196;SDS011;42889;51.112;13.772;2022-07-01T13:01:20;7.18;;;5.22;;
39196;SDS011;42889;51.112;13.772;2022-07-01T13:03:48;5.55;;;4.75;;
39196;SDS011;42889;51.112;13.772;2022-07-01T13:06:14;6.80;;;5.70;;
39196;SDS011;42889;51.112;13.772;2022-07-01T13:08:41;6.85;;;5.65;;
39196;SDS011;42889;51.112;13.772;2022-07-01T13:11:09;6.07;;;5.10;;
39196;SDS011;42889;51.112;13.772;2022-07-01T13:13:36;5.53;;;4.93;;
39196;SDS011;42889;51.112;13.772;2022-07-01T13:16:03;7.78;;;6.70;;
39196;SDS011;42889;51.112;13.772;2022-07-01T13:18:31;7.28;;;6.10;;
39196;SDS011;42889;51.112;13.772;2022-07-01T13:20:58;6.68;;;5.82;;
39196;SDS011;42889;51.112;13.772;2022-07-01T13:23:25;5.80;;;5.20;;
39196;SDS011;42889;51.112;13.772;2022-07-01T13:25:53;5.60;;;4.97;;
39196;SDS011;42889;51.112;13.772;2022-07-01T13:28:21;7.43;;;5.05;;
39196;SDS011;42889;51.112;13.772;2022-07-01T13:30:50;5.30;;;4.80;;
39196;SDS011;42889;51.112;13.772;2022-07-01T13:33:17;6.63;;;5.28;;
39196;SDS011;42889;51.112;13.772;2022-07-01T13:35:45;7.53;;;4.90;;
39196;SDS011;42889;51.112;13.772;2022-07-01T13:38:14;5.15;;;4.45;;
39196;SDS011;42889;51.112;13.772;2022-07-01T13:40:41;5.18;;;4.38;;
39196;SDS011;42889;51.112;13.772;2022-07-01T13:43:12;5.68;;;4.93;;
39196;SDS011;42889;51.112;13.772;2022-07-01T13:45:43;7.75;;;6.38;;
39196;SDS011;42889;51.112;13.772;2022-07-01T13:48:10;9.07;;;8.10;;
39196;SDS011;42889;51.112;13.772;2022-07-01T13:50:38;8.35;;;7.47;;
39196;SDS011;42889;51.112;13.772;2022-07-01T13:53:04;9.57;;;8.57;;
39196;SDS011;42889;51.112;13.772;2022-07-01T13:55:31;10.15;;;9.15;;
39196;SDS011;42889;51.112;13.772;2022-07-01T13:57:57;9.93;;;8.90;;
39196;SDS011;42889;51.112;13.772;2022-07-01T14:00:24;12.07;;;10.10;;
39196;SDS011;42889;51.112;13.772;2022-07-01T14:02:51;11.82;;;9.68;;
39196;SDS011;42889;51.112;13.772;2022-07-01T14:05:18;10.90;;;9.30;;
39196;SDS011;42889;51.112;13.772;2022-07-01T14:07:45;9.75;;;8.75;;
39196;SDS011;42889;51.112;13.772;2022-07-01T14:10:13;9.93;;;8.77;;
39196;SDS011;42889;51.112;13.772;2022-07-01T14:12:40;11.43;;;9.75;;
39196;SDS011;42889;51.112;13.772;2022-07-01T14:15:07;11.10;;;9.90;;
39196;SDS011;42889;51.112;13.772;2022-07-01T14:17:36;10.50;;;9.32;;
39196;SDS011;42889;51.112;13.772;2022-07-01T14:20:05;10.60;;;9.10;;
39196;SDS011;42889;51.112;13.772;2022-07-01T14:22:31;10.00;;;8.93;;
39196;SDS011;42889;51.112;13.772;2022-07-01T14:24:58;7.38;;;6.65;;
39196;SDS011;42889;51.112;13.772;2022-07-01T14:27:25;8.77;;;7.35;;
39196;SDS011;42889;51.112;13.772;2022-07-01T14:29:52;8.23;;;5.85;;
39196;SDS011;42889;51.112;13.772;2022-07-01T14:32:23;4.35;;;3.72;;
39196;SDS011;42889;51.112;13.772;2022-07-01T14:34:55;4.50;;;3.25;;
39196;SDS011;42889;51.112;13.772;2022-07-01T14:37:22;5.65;;;2.90;;
39196;SDS011;42889;51.112;13.772;2022-07-01T14:39:50;6.38;;;3.28;;
39196;SDS011;42889;51.112;13.772;2022-07-01T14:42:26;4.25;;;2.80;;
39196;SDS011;42889;51.112;13.772;2022-07-01T14:44:54;4.30;;;2.90;;
39196;SDS011;42889;51.112;13.772;2022-07-01T14:47:23;6.18;;;3.33;;
39196;SDS011;42889;51.112;13.772;2022-07-01T14:49:51;4.53;;;3.05;;
39196;SDS011;42889;51.112;13.772;2022-07-01T14:52:21;5.13;;;2.65;;